createdAt,value
2018-10-07T00:01:55.807Z,64.01
2018-10-07T00:04:25.273Z,64.33
2018-10-07T00:06:54.627Z,64.17
2018-10-07T00:09:24.075Z,64.52
2018-10-07T00:11:53.333Z,64.40
2018-10-07T00:14:22.878Z,64.63
2018-10-07T00:16:52.384Z,64.63
2018-10-07T00:19:21.620Z,64.73
2018-10-07T00:21:51.496Z,65.01
2018-10-07T00:24:20.736Z,66.22
2018-10-07T00:26:50.250Z,66.01
2018-10-07T00:29:19.768Z,65.73
2018-10-07T00:31:54.556Z,66.11
2018-10-07T00:34:23.792Z,66.53
2018-10-07T00:36:53.846Z,66.57
2018-10-07T00:39:23.350Z,66.63
2018-10-07T00:41:52.753Z,65.83
2018-10-07T00:44:22.432Z,66.03
2018-10-07T00:46:51.729Z,65.59
2018-10-07T00:49:21.267Z,64.30
2018-10-07T00:51:50.669Z,64.09
2018-10-07T00:54:20.173Z,64.11
2018-10-07T00:56:49.676Z,64.02
2018-10-07T00:59:19.180Z,64.55
2018-10-07T01:01:48.652Z,65.94
2018-10-07T01:04:18.165Z,66.02
2018-10-07T01:06:48.616Z,65.13
2018-10-07T01:09:18.109Z,65.85
2018-10-07T01:11:47.589Z,66.50
2018-10-07T01:14:17.333Z,66.55
2018-10-07T01:16:46.820Z,66.85
2018-10-07T01:19:16.287Z,66.48
2018-10-07T01:21:45.949Z,66.06
2018-10-07T01:24:15.555Z,65.95
2018-10-07T01:26:44.821Z,65.87
2018-10-07T01:29:14.257Z,65.62
2018-10-07T01:31:43.865Z,65.88
2018-10-07T01:34:13.266Z,66.07
2018-10-07T01:36:42.974Z,66.19
2018-10-07T01:39:13.505Z,66.76
2018-10-07T01:41:43.108Z,66.93
2018-10-07T01:44:12.613Z,66.98
2018-10-07T01:46:43.091Z,66.85
2018-10-07T01:49:12.441Z,66.72
2018-10-07T01:51:41.895Z,66.21
2018-10-07T01:54:11.158Z,66.04
2018-10-07T01:56:40.953Z,65.69
2018-10-07T01:59:10.572Z,66.15
2018-10-07T02:01:40.063Z,66.06
2018-10-07T02:04:10.699Z,66.49
2018-10-07T02:06:40.101Z,66.28
2018-10-07T02:09:10.421Z,66.60
2018-10-07T02:11:39.768Z,67.00
2018-10-07T02:14:09.225Z,67.07
2018-10-07T02:16:38.831Z,66.74
2018-10-07T02:19:08.147Z,66.83
2018-10-07T02:21:37.636Z,66.47
2018-10-07T02:24:07.391Z,66.49
2018-10-07T02:26:37.364Z,66.61
2018-10-07T02:29:06.764Z,67.32
2018-10-07T02:31:36.371Z,67.23
2018-10-07T02:34:05.968Z,69.09
2018-10-07T02:36:35.582Z,69.13
2018-10-07T02:39:07.383Z,69.67
2018-10-07T02:41:36.742Z,68.04
2018-10-07T02:44:06.348Z,67.61
2018-10-07T02:46:35.853Z,66.83
2018-10-07T02:49:05.254Z,66.79
2018-10-07T02:51:35.064Z,66.87
2018-10-07T02:54:04.640Z,67.28
2018-10-07T02:56:35.124Z,67.95
2018-10-07T02:59:04.920Z,67.68
2018-10-07T03:01:34.491Z,67.61
2018-10-07T03:04:04.226Z,67.70
2018-10-07T03:06:33.730Z,67.59
2018-10-07T03:09:03.234Z,67.75
2018-10-07T03:11:32.634Z,68.42
2018-10-07T03:14:02.140Z,68.64
2018-10-07T03:16:31.645Z,68.42
2018-10-07T03:19:01.356Z,68.57
2018-10-07T03:21:31.164Z,68.63
2018-10-07T03:24:00.567Z,68.31
2018-10-07T03:26:30.072Z,69.48
2018-10-07T03:28:59.576Z,69.05
2018-10-07T03:31:28.815Z,68.94
2018-10-07T03:33:58.277Z,68.84
2018-10-07T03:36:27.680Z,69.60
2018-10-07T03:38:56.980Z,69.12
2018-10-07T03:41:26.381Z,68.70
2018-10-07T03:43:55.783Z,68.79
2018-10-07T03:46:25.185Z,68.42
2018-10-07T03:48:55.426Z,68.46
2018-10-07T03:51:24.755Z,68.32
2018-10-07T03:53:54.106Z,68.37
2018-10-07T03:56:23.614Z,69.07
2018-10-07T03:58:52.831Z,68.24
2018-10-07T04:01:22.520Z,67.93
2018-10-07T04:03:51.916Z,67.36
2018-10-07T04:06:22.346Z,67.19
2018-10-07T04:08:51.564Z,67.28
2018-10-07T04:11:22.173Z,67.16
2018-10-07T04:13:51.574Z,67.19
2018-10-07T04:16:21.945Z,67.65
2018-10-07T04:18:51.461Z,68.20
2018-10-07T04:21:21.956Z,67.65
2018-10-07T04:23:51.333Z,68.58
2018-10-07T04:26:20.639Z,69.27
2018-10-07T04:28:50.344Z,70.15
2018-10-07T04:31:19.883Z,69.68
2018-10-07T04:33:49.271Z,69.10
2018-10-07T04:36:18.855Z,68.72
2018-10-07T04:38:48.489Z,68.82
2018-10-07T04:41:17.728Z,69.87
2018-10-07T04:43:47.367Z,70.73
2018-10-07T04:46:16.798Z,70.47
2018-10-07T04:48:46.179Z,70.67
2018-10-07T04:51:15.448Z,70.93
2018-10-07T04:53:44.872Z,71.90
2018-10-07T04:56:14.136Z,72.19
2018-10-07T04:58:43.680Z,72.84
2018-10-07T05:01:14.199Z,72.82
2018-10-07T05:03:43.708Z,72.26
2018-10-07T05:06:13.314Z,72.81
2018-10-07T05:08:43.419Z,74.85
2018-10-07T05:11:13.620Z,76.31
2018-10-07T05:13:50.827Z,75.83
2018-10-07T05:16:44.075Z,74.88
2018-10-07T05:19:13.666Z,75.21
2018-10-07T05:21:43.315Z,76.87
2018-10-07T05:24:12.921Z,75.36
2018-10-07T05:26:42.424Z,74.19
2018-10-07T05:29:11.826Z,73.21
2018-10-07T05:31:41.333Z,72.44
2018-10-07T05:34:10.937Z,72.37
2018-10-07T05:36:40.446Z,72.39
2018-10-07T05:39:11.268Z,72.30
2018-10-07T05:41:40.967Z,71.48
2018-10-07T05:44:10.540Z,71.40
2018-10-07T05:46:39.892Z,71.54
2018-10-07T05:49:09.358Z,71.17
2018-10-07T05:51:38.799Z,71.97
2018-10-07T05:54:08.404Z,71.84
2018-10-07T05:56:37.806Z,71.49
2018-10-07T05:59:07.751Z,70.93
2018-10-07T06:01:42.773Z,70.29
2018-10-07T06:04:22.755Z,70.15
2018-10-07T06:06:52.823Z,70.79
2018-10-07T06:09:29.475Z,70.02
2018-10-07T06:11:59.307Z,70.26
2018-10-07T06:14:40.195Z,70.37
2018-10-07T06:17:09.785Z,71.59
2018-10-07T06:19:39.177Z,71.97
2018-10-07T06:22:08.568Z,70.47
2018-10-07T06:24:38.151Z,69.98
2018-10-07T06:27:07.902Z,70.62
2018-10-07T06:29:37.541Z,70.19
2018-10-07T06:32:06.916Z,70.05
2018-10-07T06:34:36.283Z,70.51
2018-10-07T06:37:05.809Z,69.80
2018-10-07T06:39:35.426Z,69.60
2018-10-07T06:42:04.928Z,69.68
2018-10-07T06:44:34.534Z,69.42
2018-10-07T06:47:05.984Z,69.90
2018-10-07T06:49:35.487Z,70.15
2018-10-07T06:52:05.094Z,70.04
2018-10-07T06:54:34.601Z,70.73
2018-10-07T06:57:04.207Z,70.84
2018-10-07T06:59:33.768Z,70.78
2018-10-07T07:02:03.317Z,71.20
2018-10-07T07:04:32.719Z,71.10
2018-10-07T07:07:02.223Z,71.17
2018-10-07T07:09:31.624Z,71.22
2018-10-07T07:12:00.926Z,71.71
2018-10-07T07:14:30.327Z,71.27
2018-10-07T07:16:59.728Z,71.47
2018-10-07T07:19:29.300Z,71.59
2018-10-07T07:21:58.736Z,72.00
2018-10-07T07:24:27.967Z,71.52
2018-10-07T07:26:57.440Z,71.39
2018-10-07T07:29:26.786Z,71.13
2018-10-07T07:31:56.138Z,70.46
2018-10-07T07:34:25.463Z,70.15
2018-10-07T07:36:54.994Z,70.43
2018-10-07T07:39:24.781Z,70.53
2018-10-07T07:41:54.155Z,70.43
2018-10-07T07:44:23.763Z,70.16
2018-10-07T07:46:53.165Z,69.18
2018-10-07T07:49:22.669Z,69.21
2018-10-07T07:51:52.071Z,69.87
2018-10-07T07:54:21.371Z,69.81
2018-10-07T07:56:50.876Z,69.00
2018-10-07T07:59:20.482Z,67.87
2018-10-07T08:01:51.009Z,68.06
2018-10-07T08:04:20.719Z,68.01
2018-10-07T08:06:50.207Z,67.93
2018-10-07T08:09:21.062Z,68.47
2018-10-07T08:11:50.359Z,68.55
2018-10-07T08:14:19.759Z,68.86
2018-10-07T08:16:49.160Z,68.93
2018-10-07T08:19:18.671Z,68.60
2018-10-07T08:21:48.154Z,68.07
2018-10-07T08:24:17.675Z,68.43
2018-10-07T08:26:46.928Z,68.82
2018-10-07T08:29:19.140Z,69.38
2018-10-07T08:31:48.953Z,69.37
2018-10-07T08:34:18.263Z,69.05
2018-10-07T08:36:48.725Z,68.71
2018-10-07T08:39:18.284Z,68.20
2018-10-07T08:41:47.539Z,68.44
2018-10-07T08:44:17.088Z,68.01
2018-10-07T08:46:46.539Z,68.15
2018-10-07T08:49:18.155Z,68.27
2018-10-07T08:51:47.851Z,69.24
2018-10-07T08:54:21.187Z,68.08
2018-10-07T08:56:52.207Z,68.45
2018-10-07T08:59:24.282Z,69.22
2018-10-07T09:01:54.236Z,68.94
2018-10-07T09:04:24.477Z,68.04
2018-10-07T09:06:54.268Z,67.02
2018-10-07T09:09:23.927Z,66.46
2018-10-07T09:11:53.820Z,66.37
2018-10-07T09:14:23.529Z,66.78
2018-10-07T09:16:53.339Z,66.63
2018-10-07T09:19:23.225Z,67.60
2018-10-07T09:21:53.344Z,68.07
2018-10-07T09:24:24.226Z,66.20
2018-10-07T09:26:53.956Z,67.42
2018-10-07T09:29:23.917Z,67.16
2018-10-07T09:31:53.955Z,67.16
2018-10-07T09:34:23.864Z,66.71
2018-10-07T09:36:54.146Z,66.54
2018-10-07T09:39:24.155Z,65.63
2018-10-07T09:41:54.118Z,66.21
2018-10-07T09:44:24.243Z,66.14
2018-10-07T09:46:54.218Z,66.20
2018-10-07T09:49:24.267Z,66.33
2018-10-07T09:51:54.079Z,66.32
2018-10-07T09:54:24.278Z,65.03
2018-10-07T09:56:54.340Z,65.32
2018-10-07T09:59:24.260Z,64.71
2018-10-07T10:01:54.197Z,64.97
2018-10-07T10:04:25.708Z,63.51
2018-10-07T10:06:56.309Z,64.10
2018-10-07T10:09:26.273Z,63.75
2018-10-07T10:11:56.155Z,63.74
2018-10-07T10:14:26.227Z,64.21
2018-10-07T10:17:03.932Z,64.00
2018-10-07T10:19:47.289Z,65.04
2018-10-07T10:22:25.400Z,65.75
2018-10-07T10:25:01.979Z,65.81
2018-10-07T10:27:55.646Z,66.60
2018-10-07T10:30:32.589Z,66.93
2018-10-07T10:33:10.098Z,66.48
2018-10-07T10:37:01.748Z,67.21
2018-10-07T10:40:03.502Z,66.54
2018-10-07T10:42:35.590Z,66.63
2018-10-07T10:45:05.625Z,66.05
2018-10-07T10:47:43.688Z,65.18
2018-10-07T10:50:25.075Z,65.38
2018-10-07T10:53:09.766Z,65.58
2018-10-07T10:55:49.963Z,65.46
2018-10-07T10:58:36.286Z,66.15
2018-10-07T11:01:15.968Z,65.02
2018-10-07T11:04:27.987Z,66.85
2018-10-07T11:07:15.185Z,67.71
2018-10-07T11:10:52.444Z,68.50
2018-10-07T11:15:33.847Z,67.22
2018-10-07T11:18:13.785Z,66.74
2018-10-07T11:23:01.433Z,67.17
2018-10-07T11:25:43.981Z,68.95
2018-10-07T11:28:26.667Z,68.54
2018-10-07T11:31:26.366Z,67.78
2018-10-07T11:34:07.648Z,67.44
2018-10-07T11:39:03.893Z,67.17
2018-10-07T11:41:43.956Z,69.37
2018-10-07T11:45:19.675Z,69.12
2018-10-07T11:50:08.814Z,69.69
2018-10-07T11:52:50.928Z,69.39
2018-10-07T11:55:20.956Z,69.14
2018-10-07T11:57:50.805Z,69.01
2018-10-07T12:00:20.721Z,68.67
2018-10-07T12:02:50.458Z,67.21
2018-10-07T12:05:20.592Z,67.26
2018-10-07T12:07:50.676Z,67.80
2018-10-07T12:10:20.624Z,67.92
2018-10-07T12:12:50.491Z,67.94
2018-10-07T12:15:20.605Z,67.33
2018-10-07T12:17:51.539Z,67.13
2018-10-07T12:20:27.215Z,66.86
2018-10-07T12:22:57.754Z,65.49
2018-10-07T12:25:27.394Z,67.20
2018-10-07T12:27:57.309Z,68.36
2018-10-07T12:30:26.955Z,67.68
2018-10-07T12:32:56.869Z,68.75
2018-10-07T12:35:27.073Z,68.64
2018-10-07T12:37:56.849Z,67.98
2018-10-07T12:40:26.425Z,67.09
2018-10-07T12:42:55.911Z,67.93
2018-10-07T12:45:25.413Z,67.52
2018-10-07T12:47:55.126Z,67.22
2018-10-07T12:50:24.604Z,66.77
2018-10-07T12:52:59.454Z,66.94
2018-10-07T12:55:34.611Z,66.29
2018-10-07T12:58:04.200Z,66.01
2018-10-07T13:00:34.167Z,65.71
2018-10-07T13:03:04.029Z,65.08
2018-10-07T13:05:33.531Z,65.23
2018-10-07T13:08:03.036Z,66.17
2018-10-07T13:10:32.540Z,65.25
2018-10-07T13:13:01.946Z,65.08
2018-10-07T13:15:31.445Z,65.98
2018-10-07T13:18:01.052Z,65.91
2018-10-07T13:20:30.659Z,65.99
2018-10-07T13:23:00.012Z,65.99
2018-10-07T13:25:29.560Z,65.77
2018-10-07T13:27:59.172Z,67.15
2018-10-07T13:30:28.777Z,67.37
2018-10-07T13:32:58.180Z,65.58
2018-10-07T13:35:27.685Z,65.58
2018-10-07T13:37:57.094Z,65.83
2018-10-07T13:40:26.516Z,66.29
2018-10-07T13:42:55.888Z,67.75
2018-10-07T13:45:25.497Z,68.01
2018-10-07T13:47:54.838Z,68.25
2018-10-07T13:50:24.196Z,69.06
2018-10-07T13:52:54.399Z,67.10
2018-10-07T13:55:23.694Z,67.14
2018-10-07T13:57:53.121Z,65.96
2018-10-07T14:00:22.726Z,66.36
2018-10-07T14:02:52.129Z,65.94
2018-10-07T14:05:21.558Z,66.04
2018-10-07T14:07:50.867Z,65.83
2018-10-07T14:10:20.330Z,65.54
2018-10-07T14:12:49.845Z,66.25
2018-10-07T14:15:19.347Z,66.29
2018-10-07T14:17:48.748Z,66.71
2018-10-07T14:20:18.251Z,66.52
2018-10-07T14:22:47.717Z,66.25
2018-10-07T14:25:17.156Z,65.60
2018-10-07T14:27:46.659Z,65.59
2018-10-07T14:30:16.171Z,65.73
2018-10-07T14:32:45.518Z,67.37
2018-10-07T14:35:15.047Z,67.35
2018-10-07T14:37:44.466Z,67.43
2018-10-07T14:40:13.770Z,67.46
2018-10-07T14:42:42.981Z,66.59
2018-10-07T14:45:12.435Z,65.37
2018-10-07T14:47:41.769Z,66.24
2018-10-07T14:50:11.276Z,66.21
2018-10-07T14:52:40.679Z,66.57
2018-10-07T14:55:10.085Z,66.92
2018-10-07T14:57:39.382Z,66.66
2018-10-07T15:00:08.885Z,67.23
2018-10-07T15:02:38.181Z,66.61
2018-10-07T15:05:07.584Z,66.95
2018-10-07T15:07:36.987Z,65.83
2018-10-07T15:10:06.490Z,64.92
2018-10-07T15:12:35.896Z,66.24
2018-10-07T15:15:05.667Z,66.34
2018-10-07T15:17:35.166Z,66.42
2018-10-07T15:20:04.917Z,65.87
2018-10-07T15:22:34.318Z,65.50
2018-10-07T15:25:03.731Z,65.94
2018-10-07T15:27:33.128Z,66.10
2018-10-07T15:30:02.701Z,66.23
2018-10-07T15:32:32.711Z,65.71
2018-10-07T15:35:02.250Z,65.49
2018-10-07T15:37:31.756Z,65.67
2018-10-07T15:40:01.175Z,66.56
2018-10-07T15:42:30.560Z,67.88
2018-10-07T15:45:00.016Z,68.02
2018-10-07T15:47:29.671Z,68.85
2018-10-07T15:49:59.223Z,68.29
2018-10-07T15:52:28.677Z,67.98
2018-10-07T15:54:58.181Z,67.71
2018-10-07T15:57:27.450Z,66.99
2018-10-07T15:59:56.764Z,66.73
2018-10-07T16:02:26.254Z,68.01
2018-10-07T16:04:55.638Z,68.14
2018-10-07T16:07:25.499Z,68.44
2018-10-07T16:09:56.197Z,67.76
2018-10-07T16:12:25.839Z,66.82
2018-10-07T16:14:55.142Z,66.19
2018-10-07T16:17:24.651Z,66.68
2018-10-07T16:19:53.961Z,66.67
2018-10-07T16:22:24.366Z,66.56
2018-10-07T16:24:53.872Z,66.46
2018-10-07T16:27:23.478Z,67.48
2018-10-07T16:29:52.881Z,68.33
2018-10-07T16:32:22.905Z,69.16
2018-10-07T16:34:52.505Z,68.91
2018-10-07T16:37:21.949Z,69.12
2018-10-07T16:39:51.411Z,69.29
2018-10-07T16:42:20.681Z,68.60
2018-10-07T16:44:50.828Z,68.97
2018-10-07T16:47:20.334Z,67.78
2018-10-07T16:49:49.938Z,67.99
2018-10-07T16:52:19.649Z,68.17
2018-10-07T16:54:48.962Z,68.17
2018-10-07T16:57:18.432Z,67.67
2018-10-07T16:59:47.956Z,66.52
2018-10-07T17:02:17.235Z,66.78
2018-10-07T17:04:46.657Z,66.11
2018-10-07T17:07:16.116Z,65.80
2018-10-07T17:09:46.689Z,65.56
2018-10-07T17:12:16.083Z,65.40
2018-10-07T17:14:45.698Z,65.48
2018-10-07T17:17:15.615Z,65.53
2018-10-07T17:19:44.985Z,65.39
2018-10-07T17:22:15.031Z,65.28
2018-10-07T17:24:44.636Z,64.36
2018-10-07T17:27:13.951Z,64.28
2018-10-07T17:29:43.542Z,64.36
2018-10-07T17:32:12.867Z,64.31
2018-10-07T17:34:42.315Z,64.35
2018-10-07T17:37:11.681Z,64.44
2018-10-07T17:39:41.151Z,63.62
2018-10-07T17:42:10.457Z,63.98
2018-10-07T17:44:40.056Z,63.51
2018-10-07T17:47:09.520Z,63.61
2018-10-07T17:49:38.818Z,63.68
2018-10-07T17:52:09.284Z,63.71
2018-10-07T17:54:38.792Z,63.24
2018-10-07T17:57:08.908Z,63.39
2018-10-07T17:59:38.412Z,63.95
2018-10-07T18:02:08.366Z,63.53
2018-10-07T18:04:37.853Z,63.34
2018-10-07T18:07:07.214Z,63.25
2018-10-07T18:09:36.942Z,63.25
2018-10-07T18:12:06.238Z,62.76
2018-10-07T18:14:35.743Z,62.04
2018-10-07T18:17:05.025Z,62.75
2018-10-07T18:19:34.344Z,64.71
2018-10-07T18:22:03.584Z,65.01
2018-10-07T18:24:32.943Z,65.17
2018-10-07T18:27:02.346Z,64.59
2018-10-07T18:29:31.747Z,64.01
2018-10-07T18:32:01.045Z,63.93
2018-10-07T18:34:30.552Z,64.26
2018-10-07T18:37:00.055Z,64.25
2018-10-07T18:39:29.662Z,63.73
2018-10-07T18:41:59.167Z,63.79
2018-10-07T18:44:28.572Z,64.06
2018-10-07T18:46:58.072Z,65.08
2018-10-07T18:49:27.369Z,65.66
2018-10-07T18:51:57.020Z,65.81
2018-10-07T18:54:26.386Z,66.27
2018-10-07T18:56:56.396Z,67.57
2018-10-07T18:59:26.822Z,68.82
2018-10-07T19:01:56.328Z,68.79
2018-10-07T19:04:27.881Z,67.88
2018-10-07T19:06:57.381Z,66.35
2018-10-07T19:09:26.869Z,66.91
2018-10-07T19:11:56.634Z,66.39
2018-10-07T19:14:26.093Z,66.01
2018-10-07T19:16:55.565Z,66.10
2018-10-07T19:19:24.896Z,65.65
2018-10-07T19:21:54.510Z,66.21
2018-10-07T19:24:24.422Z,66.06
2018-10-07T19:26:53.689Z,66.20
2018-10-07T19:29:23.333Z,66.46
2018-10-07T19:31:53.753Z,66.70
2018-10-07T19:34:23.227Z,65.98
2018-10-07T19:36:52.740Z,66.10
2018-10-07T19:39:22.166Z,66.13
2018-10-07T19:41:51.673Z,65.82
2018-10-07T19:44:21.481Z,66.34
2018-10-07T19:46:50.987Z,66.26
2018-10-07T19:49:20.448Z,66.13
2018-10-07T19:51:49.995Z,66.88
2018-10-07T19:54:19.502Z,67.02
2018-10-07T19:56:49.005Z,68.01
2018-10-07T19:59:18.508Z,67.99
2018-10-07T20:01:47.909Z,67.48
2018-10-07T20:04:17.516Z,67.41
2018-10-07T20:06:46.919Z,67.36
2018-10-07T20:09:16.399Z,67.65
2018-10-07T20:11:45.806Z,67.94
2018-10-07T20:14:15.270Z,68.27
2018-10-07T20:16:44.628Z,67.56
2018-10-07T20:19:14.078Z,67.77
2018-10-07T20:21:43.638Z,67.63
2018-10-07T20:24:13.138Z,67.56
2018-10-07T20:26:42.747Z,68.01
2018-10-07T20:29:12.148Z,68.09
2018-10-07T20:31:41.498Z,68.19
2018-10-07T20:34:11.157Z,67.90
2018-10-07T20:36:40.559Z,68.99
2018-10-07T20:39:10.887Z,69.10
2018-10-07T20:41:40.744Z,69.39
2018-10-07T20:44:10.293Z,69.42
2018-10-07T20:46:39.783Z,69.46
2018-10-07T20:49:09.283Z,68.71
2018-10-07T20:51:38.713Z,68.51
2018-10-07T20:54:08.319Z,68.73
2018-10-07T20:56:37.827Z,67.89
2018-10-07T20:59:07.943Z,67.37
2018-10-07T21:01:37.292Z,67.83
2018-10-07T21:04:06.607Z,67.56
2018-10-07T21:06:36.047Z,67.72
2018-10-07T21:09:08.748Z,67.35
2018-10-07T21:11:38.402Z,66.44
2018-10-07T21:14:07.752Z,66.98
2018-10-07T21:16:37.547Z,67.97
2018-10-07T21:19:06.876Z,68.55
2018-10-07T21:21:36.448Z,67.85
2018-10-07T21:24:05.831Z,67.37
2018-10-07T21:26:35.156Z,68.14
2018-10-07T21:29:04.479Z,69.16
2018-10-07T21:31:34.569Z,70.19
2018-10-07T21:34:03.855Z,70.32
2018-10-07T21:36:34.205Z,69.67
2018-10-07T21:39:05.400Z,69.17
2018-10-07T21:41:34.782Z,70.07
2018-10-07T21:44:04.133Z,69.49
2018-10-07T21:46:33.420Z,69.23
2018-10-07T21:49:04.201Z,68.62
2018-10-07T21:51:33.777Z,68.38
2018-10-07T21:54:04.916Z,69.37
2018-10-07T21:56:34.326Z,69.83
2018-10-07T21:59:03.826Z,70.09
2018-10-07T22:01:33.055Z,69.96
2018-10-07T22:04:02.423Z,70.05
2018-10-07T22:06:31.707Z,70.84
2018-10-07T22:09:00.982Z,70.61
2018-10-07T22:11:30.425Z,70.18
2018-10-07T22:13:59.676Z,69.83
2018-10-07T22:16:29.122Z,68.74
2018-10-07T22:18:58.367Z,69.53
2018-10-07T22:21:27.826Z,69.44
2018-10-07T22:23:57.126Z,69.11
2018-10-07T22:26:27.323Z,69.08
2018-10-07T22:28:56.574Z,69.84
2018-10-07T22:31:26.253Z,69.88
2018-10-07T22:33:55.760Z,70.18
2018-10-07T22:36:25.290Z,70.79
2018-10-07T22:38:54.866Z,70.60
2018-10-07T22:41:24.474Z,69.90
2018-10-07T22:43:54.082Z,69.66
2018-10-07T22:46:23.382Z,69.39
2018-10-07T22:48:52.674Z,69.09
2018-10-07T22:51:23.883Z,68.59
2018-10-07T22:53:53.534Z,68.23
2018-10-07T22:56:22.756Z,68.19
2018-10-07T22:58:52.029Z,68.47
2018-10-07T23:01:22.658Z,68.55
2018-10-07T23:03:53.147Z,68.69
2018-10-07T23:06:22.794Z,69.27
2018-10-07T23:08:52.253Z,68.51
2018-10-07T23:11:21.599Z,68.84
2018-10-07T23:13:51.119Z,69.61
2018-10-07T23:16:20.716Z,69.14
2018-10-07T23:18:50.001Z,70.58
2018-10-07T23:21:19.306Z,70.02
2018-10-07T23:23:48.796Z,70.50
2018-10-07T23:26:18.208Z,69.94
2018-10-07T23:28:47.716Z,69.99
2018-10-07T23:31:17.044Z,69.70
2018-10-07T23:33:46.624Z,70.03
2018-10-07T23:36:16.127Z,70.76
2018-10-07T23:38:45.591Z,71.08
2018-10-07T23:41:15.487Z,70.63
2018-10-07T23:43:44.946Z,70.41
2018-10-07T23:46:14.425Z,69.62
2018-10-07T23:48:43.956Z,69.43
2018-10-07T23:51:13.357Z,69.02
2018-10-07T23:53:42.763Z,69.06
2018-10-07T23:56:12.226Z,69.04
2018-10-07T23:58:41.665Z,69.21
